This is the latest recevied weather packets stored in our database for station/object IT9RID. If no packets are shown the sender has not sent any weather packets the latest 10 day(s).
| Time | Temp. | Humidity | Pressure | Rain* | Wind** | Luminosity | Snow |
|---|---|---|---|---|---|---|---|
| 1777716193 | 17.22° C | 41% | 1021.5 hPa | 0 mm | - | - | - |
| 1777715592 | 16.67° C | 48% | 1021.4 hPa | 0 mm | - | - | - |
| 1777714992 | 16.11° C | 51% | 1021.5 hPa | 0 mm | - | - | - |
| 1777714392 | 16.11° C | 50% | 1021.4 hPa | 0 mm | - | - | - |
| 1777713792 | 16.67° C | 49% | 1021.3 hPa | 0 mm | - | - | - |
| 1777713192 | 17.22° C | 49% | 1021.1 hPa | 0 mm | - | - | - |
| 1777712592 | 17.22° C | 47% | 1021.1 hPa | 0 mm | - | - | - |
| 1777711992 | 17.22° C | 48% | 1021.1 hPa | 0 mm | - | - | - |
| 1777711391 | 16.67° C | 48% | 1021 hPa | 0 mm | - | - | - |
| 1777710791 | 16.67° C | 45% | 1021 hPa | 0 mm | - | - | - |
| 1777709591 | 16.67° C | 47% | 1021 hPa | 0 mm | - | - | - |
| 1777708991 | 16.67° C | 49% | 1020.9 hPa | 0 mm | - | - | - |
| 1777708391 | 16.11° C | 53% | 1021 hPa | 0 mm | - | - | - |
| 1777707794 | 15.56° C | 55% | 1020.9 hPa | 0 mm | - | - | - |
| 1777707191 | 15.56° C | 54% | 1020.9 hPa | 0 mm | - | - | - |
| 1777706590 | 16.11° C | 50% | 1020.9 hPa | 0 mm | - | - | - |
| 1777705990 | 16.67° C | 51% | 1020.8 hPa | 0 mm | - | - | - |
| 1777705390 | 16.11° C | 51% | 1020.8 hPa | 0 mm | - | - | - |
| 1777704790 | 16.67° C | 50% | 1020.7 hPa | 0 mm | - | - | - |
| 1777704190 | 16.11° C | 50% | 1020.7 hPa | 0 mm | - | - | - |
| 1777703589 | 15.56° C | 54% | 1020.7 hPa | 0 mm | - | - | - |
| 1777702989 | 15.56° C | 57% | 1020.5 hPa | 0 mm | - | - | - |
| 1777702389 | 14.44° C | 60% | 1020.6 hPa | 0 mm | - | - | - |
| 1777701789 | 13.89° C | 60% | 1020.4 hPa | 0 mm | - | - | - |
| 1777701189 | 13.89° C | 61% | 1020.4 hPa | 0 mm | - | - | - |
* Rain latest hour (hover to see other rain measurements)
** Current wind speed in m/s (hover to see current wind gust speed)